Time;durP1;ratioP1;P1;durP2;ratioP2;P2;SDS_P1;SDS_P2;PMS_P1;PMS_P2;Temp;Humidity;BMP_temperature;BMP_pressure;BME280_temperature;BME280_humidity;BME280_pressure;Samples;Min_cycle;Max_cycle;Signal;HPM_P1;HPM_P2
2023/03/05 00:03:05;;;;;;;;;;;8.40;50.80;;;6.72;54.35;101075.94;12252757;19;19915;-87
2023/03/05 00:07:11;;;;;;;;;;;8.40;50.80;;;6.72;54.40;101075.94;12256297;19;19974;-87
2023/03/05 00:11:12;;;;;;;;;;;8.30;51.20;;;6.79;54.48;101093.03;12254097;19;19939;-87
2023/03/05 00:15:14;;;;;;;;;;;8.30;50.90;;;6.48;54.52;101035.25;12249566;19;19919;-87
2023/03/05 00:19:16;;;;;;;;;;;8.30;50.90;;;6.74;54.25;101075.91;12250954;19;19915;-87
2023/03/05 00:23:17;;;;;;;;;;;8.30;50.90;;;6.68;54.47;101069.19;12249745;19;19940;-87
2023/03/05 00:27:18;;;;;;;;;;;8.20;50.90;;;6.51;54.33;101040.34;12251014;19;19978;-87
2023/03/05 00:31:24;;;;;;;;;;;8.20;50.90;;;6.56;54.60;101049.69;12248136;19;19915;-87
2023/03/05 00:35:25;;;;;;;;;;;8.20;50.90;;;6.44;54.40;101031.91;12247526;19;19971;-87
2023/03/05 00:39:28;;;;;;;;;;;8.10;51.00;;;6.23;54.37;101004.09;12246391;19;19925;-86
2023/03/05 00:43:29;;;;;;;;;;;8.10;51.10;;;6.47;54.45;101055.16;12249019;19;19954;-86
2023/03/05 00:47:31;;;;;;;;;;;8.00;51.20;;;6.42;54.51;101057.91;12249898;19;19907;-85
2023/03/05 00:51:33;;;;;;;;;;;8.00;51.30;;;6.37;54.68;101065.00;12250457;19;19940;-85
2023/03/05 00:55:35;;;;;;;;;;;7.90;51.50;;;6.22;54.61;101036.13;12250623;19;19907;-85
2023/03/05 00:59:36;;;;;;;;;;;7.90;51.50;;;6.25;54.69;101033.44;12250314;19;19927;-85
2023/03/05 01:03:38;;;;;;;;;;;7.80;51.50;;;6.29;54.51;101040.19;12248153;19;19930;-85
2023/03/05 01:07:40;;;;;;;;;;;8.00;51.70;;;6.24;54.67;101027.41;12251928;19;20377;-85
2023/03/05 01:11:41;;;;;;;;;;;7.80;51.60;;;6.21;54.52;101019.69;12248605;19;19922;-85
2023/03/05 01:15:45;;;;;;;;;;;7.80;51.70;;;6.06;54.67;101002.91;12250525;19;20350;-84
2023/03/05 01:19:47;;;;;;;;;;;7.70;51.70;;;5.80;54.54;100966.56;12249392;19;20386;-85
2023/03/05 01:23:48;;;;;;;;;;;7.70;51.80;;;5.91;54.77;100977.44;12247429;19;19919;-85
2023/03/05 01:27:51;;;;;;;;;;;7.60;51.80;;;6.09;54.50;101005.38;12250113;19;19918;-85
2023/03/05 01:31:53;;;;;;;;;;;7.60;51.80;;;6.10;54.69;100994.16;12249012;19;19927;-85
2023/03/05 01:35:54;;;;;;;;;;;7.60;51.90;;;5.76;54.61;100943.34;12249742;19;19944;-85
2023/03/05 01:39:56;;;;;;;;;;;7.60;51.90;;;6.09;54.69;100989.84;12246939;19;20319;-85
2023/03/05 01:43:58;;;;;;;;;;;7.50;51.90;;;6.08;54.53;100990.75;12250908;19;19919;-85
2023/03/05 01:48:00;;;;;;;;;;;7.50;51.80;;;5.69;54.76;100923.69;12262504;19;19914;-85
2023/03/05 01:52:18;;;;;;;;;;;7.50;51.90;;;6.01;54.66;100978.03;12259044;19;19910;-85
2023/03/05 01:56:20;;;;;;;;;;;7.50;51.90;;;5.94;54.83;100982.53;12257397;19;19923;-85
2023/03/05 02:00:44;;;;;;;;;;;7.50;51.90;;;5.90;54.58;100965.38;12259318;19;19919;-85
2023/03/05 02:04:53;;;;;;;;;;;7.40;51.80;;;5.89;54.56;100969.72;12255017;19;19923;-85
2023/03/05 02:08:55;;;;;;;;;;;7.30;51.80;;;5.80;54.73;100972.59;12260287;19;19922;-85
2023/03/05 02:13:01;;;;;;;;;;;7.30;51.70;;;5.68;54.89;100950.50;12257161;19;19931;-85
2023/03/05 02:17:02;;;;;;;;;;;7.30;51.60;;;5.55;54.73;100928.47;12258808;19;19926;-85
2023/03/05 02:21:06;;;;;;;;;;;7.20;51.50;;;5.63;54.67;100947.22;12260868;19;19910;-85
2023/03/05 02:25:29;;;;;;;;;;;7.20;51.50;;;5.58;54.70;100951.69;12252054;19;19919;-85
2023/03/05 02:29:32;;;;;;;;;;;7.20;51.40;;;5.59;54.70;100952.53;12259662;19;19938;-85
2023/03/05 02:33:34;;;;;;;;;;;7.10;51.30;;;5.31;54.68;100905.00;12255913;19;19919;-85
2023/03/05 02:37:37;;;;;;;;;;;7.10;51.30;;;5.55;54.84;100949.19;12256775;19;19951;-85
2023/03/05 02:41:38;;;;;;;;;;;7.10;51.20;;;5.39;54.89;100927.25;12259108;19;19922;-85
2023/03/05 02:45:40;;;;;;;;;;;7.10;51.20;;;5.31;54.69;100902.41;12258011;19;20352;-86
2023/03/05 02:49:42;;;;;;;;;;;7.00;51.10;;;5.31;54.79;100905.00;12259114;19;19910;-85
2023/03/05 02:53:44;;;;;;;;;;;7.00;51.00;;;5.46;54.69;100937.38;12254265;19;19935;-85
2023/03/05 02:57:45;;;;;;;;;;;7.00;51.00;;;5.14;54.81;100872.78;12255484;19;20265;-85
2023/03/05 03:01:47;;;;;;;;;;;7.00;50.90;;;5.15;54.75;100883.06;12256908;19;19935;-85
2023/03/05 03:05:49;;;;;;;;;;;6.90;50.90;;;5.38;54.66;100916.03;12255712;19;19986;-85
2023/03/05 03:09:51;;;;;;;;;;;6.90;50.80;;;5.15;54.80;100882.22;12259228;19;19943;-85
2023/03/05 03:13:52;;;;;;;;;;;6.90;50.80;;;5.19;54.78;100894.19;12255267;19;19907;-85
2023/03/05 03:17:54;;;;;;;;;;;6.90;50.70;;;5.16;54.61;100889.97;12255346;19;19923;-85
2023/03/05 03:21:55;;;;;;;;;;;7.10;50.80;;;5.27;54.76;100908.59;12256740;19;20347;-85
2023/03/05 03:25:57;;;;;;;;;;;6.80;50.50;;;5.27;54.62;100910.34;12256520;19;19922;-85
2023/03/05 03:30:01;;;;;;;;;;;6.80;50.50;;;5.16;54.58;100884.78;12257083;19;20361;-85
2023/03/05 03:34:03;;;;;;;;;;;6.80;50.50;;;5.17;54.61;100889.06;12254968;19;19981;-85
2023/03/05 03:38:05;;;;;;;;;;;6.80;50.50;;;5.18;54.62;100888.16;12252737;19;20329;-85
2023/03/05 03:42:07;;;;;;;;;;;6.80;50.50;;;5.19;54.66;100882.09;12256322;19;19943;-85
2023/03/05 03:46:08;;;;;;;;;;;6.80;50.50;;;5.18;54.72;100877.78;12255945;19;19911;-85
2023/03/05 03:50:10;;;;;;;;;;;6.70;50.50;;;5.05;54.59;100861.81;12255793;19;19919;-85
2023/03/05 03:54:13;;;;;;;;;;;6.70;50.50;;;5.02;54.61;100848.97;12253931;19;19923;-85
2023/03/05 03:58:14;;;;;;;;;;;6.80;50.60;;;5.13;54.58;100871.94;12253649;19;20355;-85
2023/03/05 04:02:16;;;;;;;;;;;6.90;50.60;;;4.96;54.84;100830.19;12251585;19;19931;-85
2023/03/05 04:06:18;;;;;;;;;;;7.00;50.60;;;4.91;54.74;100822.53;12252142;19;19915;-85
2023/03/05 04:10:19;;;;;;;;;;;7.10;50.70;;;5.19;54.61;100866.56;12252921;19;19926;-85
2023/03/05 04:14:21;;;;;;;;;;;6.70;50.50;;;4.79;54.66;100804.81;12248763;19;20238;-85
2023/03/05 04:18:23;;;;;;;;;;;6.70;50.30;;;4.80;54.55;100812.53;12250850;19;19919;-85
2023/03/05 04:22:25;;;;;;;;;;;6.70;50.50;;;5.01;54.53;100838.66;12249535;19;19919;-85
2023/03/05 04:26:27;;;;;;;;;;;6.70;50.50;;;5.06;54.74;100837.63;12252276;19;20322;-85
2023/03/05 04:30:30;;;;;;;;;;;6.90;50.60;;;5.14;54.74;100831.38;12250856;19;19922;-85
2023/03/05 04:34:32;;;;;;;;;;;6.70;50.50;;;5.06;54.81;100836.78;12247630;19;19923;-85
2023/03/05 04:38:33;;;;;;;;;;;6.70;50.50;;;5.09;54.75;100826.31;12249358;19;19918;-85
2023/03/05 04:42:34;;;;;;;;;;;6.70;50.40;;;5.00;54.83;100811.09;12250564;19;19926;-85
2023/03/05 04:46:36;;;;;;;;;;;6.70;50.60;;;5.06;54.71;100826.44;12251670;19;19914;-85
2023/03/05 04:50:38;;;;;;;;;;;6.70;50.60;;;4.97;54.75;100811.16;12251464;19;20332;-85
2023/03/05 04:54:40;;;;;;;;;;;6.80;50.60;;;4.96;54.71;100812.91;12247314;19;19939;-85
2023/03/05 04:58:41;;;;;;;;;;;6.70;50.50;;;5.03;54.73;100822.19;12246473;19;19926;-85
2023/03/05 05:02:45;;;;;;;;;;;6.60;50.60;;;4.99;54.72;100815.41;12248926;19;19918;-85
2023/03/05 05:06:47;;;;;;;;;;;6.80;50.70;;;5.01;54.82;100833.47;12253409;19;19950;-85
2023/03/05 05:11:03;;;;;;;;;;;6.60;50.60;;;4.86;54.50;100812.34;12254140;19;19937;-86
2023/03/05 05:15:06;;;;;;;;;;;6.60;50.60;;;4.85;54.77;100823.56;12251844;19;19911;-85
2023/03/05 05:19:07;;;;;;;;;;;6.50;50.60;;;4.36;54.58;100744.88;12246932;19;19923;-85
2023/03/05 05:23:09;;;;;;;;;;;6.50;50.70;;;4.90;54.53;100830.38;12251220;19;19925;-86
2023/03/05 05:27:10;;;;;;;;;;;6.50;50.70;;;4.79;54.59;100818.59;12253032;19;19970;-86
2023/03/05 05:31:15;;;;;;;;;;;6.50;50.70;;;4.73;54.72;100808.44;12252520;19;19919;-86
2023/03/05 05:35:16;;;;;;;;;;;6.40;50.70;;;4.81;54.78;100826.31;12248871;19;20021;-85
2023/03/05 05:39:18;;;;;;;;;;;6.50;50.80;;;4.84;54.61;100827.06;12248069;19;20516;-85
2023/03/05 05:43:20;;;;;;;;;;;6.40;50.80;;;4.80;54.72;100819.44;12247333;19;19974;-86
2023/03/05 05:47:21;;;;;;;;;;;6.40;50.80;;;4.74;54.44;100810.13;12248925;19;19922;-85
2023/03/05 05:51:23;;;;;;;;;;;6.40;50.80;;;4.64;54.80;100798.34;12249984;19;19923;-85
2023/03/05 05:55:25;;;;;;;;;;;6.60;50.90;;;4.74;54.80;100820.47;12243203;19;19918;-85
2023/03/05 05:59:27;;;;;;;;;;;6.40;50.90;;;4.76;54.63;100820.44;12245750;19;19915;-85
2023/03/05 06:03:29;;;;;;;;;;;6.40;50.90;;;4.58;54.47;100807.13;12246628;19;19982;-85
2023/03/05 06:07:30;;;;;;;;;;;6.40;50.90;;;4.75;54.73;100827.34;12247177;19;19922;-85
2023/03/05 06:11:32;;;;;;;;;;;6.30;50.90;;;4.65;54.75;100818.16;12247755;19;20340;-85
2023/03/05 06:15:34;;;;;;;;;;;6.30;50.90;;;4.64;54.54;100819.91;12245474;19;19926;-85
2023/03/05 06:19:36;;;;;;;;;;;6.30;50.90;;;4.69;54.56;100824.94;12244093;19;19922;-85
2023/03/05 06:23:38;;;;;;;;;;;6.30;51.00;;;4.73;54.79;100826.56;12244646;19;19950;-85
2023/03/05 06:27:39;;;;;;;;;;;6.30;51.00;;;4.63;54.59;100807.84;12247302;19;20233;-86
2023/03/05 06:31:41;;;;;;;;;;;6.30;51.00;;;4.53;54.67;100795.22;12256714;19;20337;-85
2023/03/05 06:35:42;;;;;;;;;;;6.30;51.00;;;4.38;54.66;100766.34;12259309;19;19915;-86
2023/03/05 06:39:44;;;;;;;;;;;6.30;51.10;;;4.77;54.69;100825.56;12253512;19;19911;-86
2023/03/05 06:43:47;;;;;;;;;;;6.50;51.20;;;4.54;54.88;100777.09;12257576;19;20009;-86
2023/03/05 06:47:48;;;;;;;;;;;6.40;51.10;;;4.62;54.90;100789.81;12259306;19;19922;-86
2023/03/05 06:51:49;;;;;;;;;;;6.40;51.20;;;4.37;54.62;100749.13;12257911;19;20025;-85
2023/03/05 06:55:52;;;;;;;;;;;6.50;51.20;;;4.61;54.76;100783.75;12258288;19;20330;-85
2023/03/05 06:59:53;;;;;;;;;;;6.40;51.20;;;4.73;54.86;100794.66;12256629;19;19907;-85
2023/03/05 07:03:58;;;;;;;;;;;6.50;51.30;;;4.70;54.75;100772.31;12252370;19;19914;-85
2023/03/05 07:08:00;;;;;;;;;;;6.50;51.30;;;5.01;54.88;100823.13;12259324;19;19915;-85
2023/03/05 07:12:02;;;;;;;;;;;6.60;51.40;;;5.03;54.80;100821.34;12256759;19;20337;-85
2023/03/05 07:16:08;;;;;;;;;;;6.60;51.30;;;5.05;54.71;100817.81;12260358;19;19926;-87
2023/03/05 07:20:10;;;;;;;;;;;6.70;51.30;;;4.98;54.85;100808.53;12257162;19;19921;-86
2023/03/05 07:24:12;;;;;;;;;;;6.70;51.30;;;5.08;54.89;100827.22;12255543;19;19923;-86
2023/03/05 07:28:14;;;;;;;;;;;6.70;51.30;;;4.96;54.80;100810.31;12259910;19;19939;-84
2023/03/05 07:32:16;;;;;;;;;;;6.70;51.20;;;5.15;54.83;100838.22;12255039;19;20340;-85
2023/03/05 07:36:18;;;;;;;;;;;6.80;51.20;;;5.14;54.99;100821.84;12254569;19;19915;-85
2023/03/05 07:40:20;;;;;;;;;;;6.80;51.50;;;5.17;54.74;100814.00;12255450;19;19935;-86
2023/03/05 07:44:22;;;;;;;;;;;6.80;51.10;;;5.00;54.76;100785.22;12251714;19;19911;-87
2023/03/05 07:48:24;;;;;;;;;;;6.80;51.10;;;5.26;54.79;100824.03;12252477;19;19915;-85
2023/03/05 07:52:26;;;;;;;;;;;7.00;51.20;;;5.27;54.73;100822.31;12257563;19;19915;-85
2023/03/05 07:56:30;;;;;;;;;;;6.90;51.10;;;5.27;54.78;100815.41;12252624;19;19947;-86
2023/03/05 08:00:32;;;;;;;;;;;7.20;51.20;;;5.30;54.75;100822.22;12255939;19;19922;-85
2023/03/05 08:04:33;;;;;;;;;;;7.20;51.10;;;5.40;54.77;100825.34;12253101;19;19936;-85
2023/03/05 08:08:35;;;;;;;;;;;7.00;51.10;;;5.18;54.94;100783.75;12255862;19;19915;-86
2023/03/05 08:12:36;;;;;;;;;;;7.00;51.10;;;5.49;55.00;100817.31;12253470;19;20001;-87
2023/03/05 08:16:39;;;;;;;;;;;7.30;51.10;;;5.54;54.98;100810.22;12254418;19;20342;-88
2023/03/05 08:20:40;;;;;;;;;;;7.10;50.90;;;5.58;54.81;100823.91;12253732;19;19919;-85
2023/03/05 08:24:42;;;;;;;;;;;7.20;51.10;;;5.59;54.96;100820.41;12250487;19;19918;-84
2023/03/05 08:28:44;;;;;;;;;;;7.20;50.90;;;5.49;54.82;100802.59;12252251;19;19911;-86
2023/03/05 08:32:47;;;;;;;;;;;7.20;50.80;;;5.56;54.97;100803.22;12251546;19;19918;-86
2023/03/05 08:36:49;;;;;;;;;;;7.30;50.80;;;5.65;54.96;100802.94;12251814;19;19911;-85
2023/03/05 08:40:50;;;;;;;;;;;7.50;50.90;;;5.64;54.88;100787.44;12256850;19;19919;-85
2023/03/05 08:44:52;;;;;;;;;;;7.30;50.60;;;5.66;54.71;100789.06;12245110;19;20270;-86
2023/03/05 08:48:54;;;;;;;;;;;7.30;50.60;;;5.80;54.79;100795.53;12256527;19;19938;-86
2023/03/05 08:52:55;;;;;;;;;;;7.40;50.80;;;5.81;54.82;100784.28;12252794;19;19926;-86
2023/03/05 08:56:57;;;;;;;;;;;7.50;50.70;;;5.93;54.93;100796.81;12253528;19;19914;-85
2023/03/05 09:00:59;;;;;;;;;;;7.50;50.70;;;5.75;54.77;100762.88;12254147;19;19935;-86
2023/03/05 09:05:00;;;;;;;;;;;7.60;50.50;;;5.88;54.72;100772.78;12249544;19;19922;-86
2023/03/05 09:09:02;;;;;;;;;;;7.60;50.50;;;5.84;54.88;100766.88;12251872;19;19926;-85
2023/03/05 09:13:03;;;;;;;;;;;7.60;50.00;;;5.97;55.00;100773.38;12251693;19;19935;-85
2023/03/05 09:17:05;;;;;;;;;;;7.60;50.20;;;5.97;55.02;100750.03;12253371;19;19926;-84
2023/03/05 09:21:11;;;;;;;;;;;7.70;50.20;;;6.10;54.85;100760.81;12255494;19;19935;-84
2023/03/05 09:25:13;;;;;;;;;;;7.80;50.40;;;6.26;54.94;100770.63;12249419;19;19918;-85
2023/03/05 09:29:14;;;;;;;;;;;8.00;50.50;;;6.09;54.88;100720.22;12253989;19;19919;-86
2023/03/05 09:33:16;;;;;;;;;;;7.90;50.30;;;6.38;54.74;100752.84;12251062;19;19911;-86
2023/03/05 09:37:17;;;;;;;;;;;8.10;50.40;;;6.42;54.97;100751.81;12254362;19;19926;-86
2023/03/05 09:41:47;;;;;;;;;;;8.10;50.20;;;6.59;54.68;100760.75;12250643;19;19941;-86
2023/03/05 09:46:04;;;;;;;;;;;8.20;50.40;;;6.57;54.88;100757.34;12251439;19;20242;-86
2023/03/05 09:50:22;;;;;;;;;;;8.30;50.20;;;6.64;54.60;100761.38;12251464;19;19926;-85
2023/03/05 09:54:32;;;;;;;;;;;8.30;49.50;;;6.48;54.84;100730.03;12249785;19;19926;-86
2023/03/05 09:58:47;;;;;;;;;;;8.30;49.70;;;6.56;54.68;100743.53;12246264;19;20639;-86
2023/03/05 10:02:54;;;;;;;;;;;8.30;49.30;;;6.51;54.57;100734.22;12248878;19;20538;-86
2023/03/05 10:07:03;;;;;;;;;;;8.30;49.20;;;6.29;54.55;100697.88;12258142;19;19933;-86
2023/03/05 10:11:12;;;;;;;;;;;8.30;49.50;;;6.52;54.66;100730.75;12259628;19;19907;-85
2023/03/05 10:15:19;;;;;;;;;;;8.20;49.30;;;6.50;54.66;100733.38;12252584;19;19922;-85
2023/03/05 10:19:31;;;;;;;;;;;8.20;49.60;;;6.55;54.47;100735.81;12252977;19;19935;-84
2023/03/05 10:23:47;;;;;;;;;;;8.20;49.70;;;6.54;54.49;100740.16;12256910;19;19919;-85
2023/03/05 10:28:16;;;;;;;;;;;8.10;49.30;;;6.53;54.44;100722.88;12262288;19;19931;-86
2023/03/05 10:32:33;;;;;;;;;;;8.10;49.00;;;6.50;54.53;100728.19;12262136;19;19929;-85
2023/03/05 10:36:54;;;;;;;;;;;8.10;49.50;;;6.53;54.50;100717.69;12261245;19;19915;-85
2023/03/05 10:40:56;;;;;;;;;;;8.10;49.50;;;6.52;54.46;100705.63;12261923;19;19931;-85
2023/03/05 10:45:00;;;;;;;;;;;8.10;49.50;;;6.48;54.50;100698.91;12256974;19;19975;-85
2023/03/05 10:49:04;;;;;;;;;;;8.20;49.40;;;6.50;54.50;100707.44;12259549;19;19946;-85
2023/03/05 10:53:09;;;;;;;;;;;8.20;49.40;;;6.63;54.57;100707.81;12257041;19;19923;-86
2023/03/05 10:57:10;;;;;;;;;;;8.20;49.40;;;6.59;54.54;100707.09;12257383;19;19970;-86
2023/03/05 11:01:14;;;;;;;;;;;8.20;49.10;;;6.64;54.60;100717.28;12255308;19;19934;-86
2023/03/05 11:05:36;;;;;;;;;;;8.20;48.90;;;6.58;54.35;100705.41;12251711;19;19953;-88
2023/03/05 11:09:37;;;;;;;;;;;8.40;49.10;;;6.57;54.23;100708.91;12252791;19;19915;-89
2023/03/05 11:14:04;;;;;;;;;;;8.20;49.40;;;6.54;54.55;100706.44;12249941;19;19939;-87
2023/03/05 11:18:20;;;;;;;;;;;8.20;49.50;;;6.24;54.47;100655.72;12252211;19;20328;-87
2023/03/05 11:22:23;;;;;;;;;;;8.10;49.60;;;6.37;54.46;100677.69;12253271;19;19914;-87
2023/03/05 11:26:24;;;;;;;;;;;8.10;49.70;;;6.55;54.38;100702.09;12256330;19;19922;-87
2023/03/05 11:30:31;;;;;;;;;;;8.40;49.90;;;6.53;54.26;100694.34;12254141;19;20302;-87
2023/03/05 11:34:34;;;;;;;;;;;8.10;49.70;;;6.53;54.34;100694.34;12250013;19;19919;-87
2023/03/05 11:38:58;;;;;;;;;;;8.10;49.50;;;6.24;54.36;100647.94;12255006;19;19910;-87
2023/03/05 11:43:02;;;;;;;;;;;8.10;49.60;;;6.46;54.29;100674.75;12255861;19;19978;-87
2023/03/05 11:47:25;;;;;;;;;;;8.00;49.50;;;6.53;54.47;100685.72;12256220;19;19931;-87
2023/03/05 11:51:49;;;;;;;;;;;8.10;49.80;;;6.55;54.23;100671.78;12254845;19;19923;-86
2023/03/05 11:55:56;;;;;;;;;;;8.10;49.80;;;6.43;54.36;100652.38;12257662;19;19919;-87
2023/03/05 11:59:59;;;;;;;;;;;8.10;49.80;;;6.46;54.26;100659.19;12250402;19;19940;-87
2023/03/05 12:04:03;;;;;;;;;;;8.10;49.50;;;6.50;54.36;100652.97;12250484;19;19975;-86
2023/03/05 12:08:05;;;;;;;;;;;8.10;49.30;;;6.53;54.22;100655.44;12251490;19;19923;-87
2023/03/05 12:12:25;;;;;;;;;;;8.10;49.00;;;6.62;54.33;100651.66;12249606;19;19927;-87
2023/03/05 12:16:29;;;;;;;;;;;8.10;49.40;;;6.65;54.19;100649.78;12244948;19;19914;-86
2023/03/05 12:20:34;;;;;;;;;;;8.20;49.40;;;6.68;54.24;100647.97;12252338;19;19915;-87
2023/03/05 12:24:36;;;;;;;;;;;8.20;49.70;;;6.63;54.19;100632.56;12248883;19;19915;-86
2023/03/05 12:28:40;;;;;;;;;;;8.20;49.30;;;6.75;54.30;100639.88;12250413;19;19979;-87
2023/03/05 12:32:42;;;;;;;;;;;8.20;49.40;;;6.75;54.32;100649.38;12250334;19;20352;-87
2023/03/05 12:36:43;;;;;;;;;;;8.50;49.70;;;6.69;54.14;100628.88;12251331;19;19923;-87
2023/03/05 12:40:45;;;;;;;;;;;8.30;49.70;;;6.69;54.20;100608.13;12248385;19;19932;-87
2023/03/05 12:45:18;;;;;;;;;;;8.30;49.80;;;6.78;54.23;100631.13;12249471;19;19910;-87
2023/03/05 12:49:20;;;;;;;;;;;8.30;50.00;;;6.80;54.15;100626.69;12247681;19;19918;-87
2023/03/05 12:53:21;;;;;;;;;;;8.30;50.20;;;6.70;54.28;100583.84;12249025;19;19938;-87
2023/03/05 12:57:25;;;;;;;;;;;8.30;50.20;;;6.78;54.08;100597.38;12251315;19;19921;-87
2023/03/05 13:01:30;;;;;;;;;;;8.30;50.30;;;6.95;54.24;100607.06;12242725;19;20156;-87
2023/03/05 13:05:35;;;;;;;;;;;8.40;50.40;;;6.97;54.12;100595.69;12250136;19;19911;-88
2023/03/05 13:09:36;;;;;;;;;;;8.50;50.40;;;6.86;54.13;100564.16;12249652;19;19986;-87
2023/03/05 13:13:42;;;;;;;;;;;8.50;50.20;;;6.89;54.00;100573.56;12245478;19;19914;-87
2023/03/05 13:18:06;;;;;;;;;;;8.50;49.60;;;6.86;54.03;100575.38;12244753;19;19919;-87
2023/03/05 13:22:10;;;;;;;;;;;8.50;49.60;;;6.64;54.02;100540.84;12247643;19;19927;-87
2023/03/05 13:26:17;;;;;;;;;;;8.50;48.00;;;6.95;54.15;100592.31;12249061;19;19921;-87
2023/03/05 13:30:22;;;;;;;;;;;8.50;49.20;;;6.93;54.05;100581.16;12250142;19;20349;-87
2023/03/05 13:34:29;;;;;;;;;;;8.50;49.40;;;6.84;54.22;100564.22;12245085;19;19925;-87
2023/03/05 13:38:34;;;;;;;;;;;8.50;49.40;;;6.96;54.24;100586.22;12240216;19;19914;-87
2023/03/05 13:42:37;;;;;;;;;;;8.50;49.80;;;6.75;54.07;100543.84;12258901;19;19919;-87
2023/03/05 13:46:38;;;;;;;;;;;8.60;49.40;;;6.97;54.04;100564.53;12260459;19;19922;-87
2023/03/05 13:50:40;;;;;;;;;;;8.60;49.70;;;7.06;54.18;100560.72;12259863;19;19922;-87
2023/03/05 13:54:42;;;;;;;;;;;8.70;49.50;;;7.05;54.31;100559.88;12251100;19;19911;-87
2023/03/05 13:58:52;;;;;;;;;;;8.70;49.30;;;7.12;54.05;100557.00;12254970;19;19922;-87
2023/03/05 14:02:56;;;;;;;;;;;8.70;49.30;;;6.98;54.00;100527.28;12257224;19;19926;-87
2023/03/05 14:07:02;;;;;;;;;;;8.70;49.20;;;7.17;54.07;100557.66;12259786;19;19910;-87
2023/03/05 14:11:15;;;;;;;;;;;8.70;49.30;;;7.13;54.11;100556.06;12261512;19;19922;-89
2023/03/05 14:15:31;;;;;;;;;;;8.80;49.20;;;7.12;54.16;100546.63;12256001;19;19919;-87
2023/03/05 14:19:38;;;;;;;;;;;8.80;49.20;;;7.12;54.07;100546.63;12255137;19;20384;-87
2023/03/05 14:23:39;;;;;;;;;;;8.80;49.20;;;7.20;53.92;100563.53;12255708;19;20265;-87
2023/03/05 14:27:41;;;;;;;;;;;8.80;49.00;;;7.17;54.04;100560.25;12260876;19;19914;-87
2023/03/05 14:32:17;;;;;;;;;;;8.80;47.80;;;7.15;53.86;100562.06;12254192;19;19915;-87
2023/03/05 14:36:24;;;;;;;;;;;8.80;48.50;;;7.01;53.75;100554.88;12262556;19;20273;-86
2023/03/05 14:40:28;;;;;;;;;;;8.70;48.70;;;7.04;53.80;100558.16;12262132;19;19927;-87
2023/03/05 14:44:30;;;;;;;;;;;8.60;48.80;;;6.96;53.69;100549.88;12260367;19;19929;-87
2023/03/05 14:48:31;;;;;;;;;;;8.60;49.10;;;6.71;53.70;100510.31;12263666;19;19923;-87
2023/03/05 14:52:33;;;;;;;;;;;8.60;49.20;;;7.03;53.86;100561.69;12256131;19;19935;-87
2023/03/05 14:56:35;;;;;;;;;;;8.50;49.30;;;6.98;53.87;100550.66;12260211;19;19919;-87
2023/03/05 15:00:36;;;;;;;;;;;8.50;49.40;;;6.96;53.88;100539.47;12260561;19;19971;-87
2023/03/05 15:04:39;;;;;;;;;;;8.50;49.40;;;6.94;53.96;100532.66;12254764;19;19936;-87
2023/03/05 15:08:40;;;;;;;;;;;8.50;49.50;;;7.05;53.65;100546.88;12257842;19;19997;-87
2023/03/05 15:12:43;;;;;;;;;;;8.50;49.50;;;6.98;53.91;100529.88;12256493;19;19914;-88
2023/03/05 15:16:44;;;;;;;;;;;8.50;49.50;;;6.95;53.69;100516.19;12261890;19;19925;-88
2023/03/05 15:20:47;;;;;;;;;;;8.50;49.60;;;6.98;53.79;100522.09;12257597;19;19919;-88
2023/03/05 15:24:49;;;;;;;;;;;8.50;49.60;;;6.89;53.53;100506.09;12255821;19;19922;-87
2023/03/05 15:28:50;;;;;;;;;;;8.50;49.70;;;6.94;53.83;100523.16;12254975;19;19933;-88
2023/03/05 15:32:53;;;;;;;;;;;8.50;49.70;;;6.94;53.65;100519.69;12256669;19;20282;-87
2023/03/05 15:36:55;;;;;;;;;;;8.50;49.70;;;6.96;53.76;100529.09;12257339;19;19915;-87
2023/03/05 15:40:57;;;;;;;;;;;8.40;49.70;;;6.94;53.65;100514.50;12257467;19;19911;-89
2023/03/05 15:44:58;;;;;;;;;;;8.50;49.70;;;6.94;53.59;100507.56;12252733;19;19939;-88
2023/03/05 15:49:01;;;;;;;;;;;8.40;49.70;;;6.92;53.71;100511.97;12255862;19;19922;-86
2023/03/05 15:53:03;;;;;;;;;;;8.40;49.70;;;6.94;53.70;100507.56;12252970;19;20246;-87
2023/03/05 15:57:08;;;;;;;;;;;8.40;49.70;;;6.95;53.76;100511.00;12247923;19;19930;-87
2023/03/05 16:01:11;;;;;;;;;;;8.40;49.70;;;6.91;53.62;100505.09;12252708;19;19919;-88
2023/03/05 16:05:14;;;;;;;;;;;8.50;49.80;;;6.98;53.66;100505.69;12253003;19;19911;-88
2023/03/05 16:09:18;;;;;;;;;;;8.50;49.70;;;6.74;53.62;100477.28;12256209;19;19915;-88
2023/03/05 16:13:19;;;;;;;;;;;8.50;50.00;;;6.87;53.46;100508.75;12250059;19;19933;-87
2023/03/05 16:17:22;;;;;;;;;;;8.50;49.30;;;6.85;53.46;100513.97;12251761;19;20250;-87
2023/03/05 16:21:23;;;;;;;;;;;8.50;49.40;;;6.75;53.64;100484.19;12247815;19;19975;-87
2023/03/05 16:25:25;;;;;;;;;;;8.40;49.40;;;6.62;53.68;100467.44;12246143;19;19979;-86
2023/03/05 16:29:27;;;;;;;;;;;8.40;49.50;;;6.80;53.50;100507.31;12251346;19;19940;-86
2023/03/05 16:33:29;;;;;;;;;;;8.40;49.50;;;6.69;53.72;100478.38;12250237;19;19931;-86
2023/03/05 16:37:30;;;;;;;;;;;8.30;49.50;;;6.77;53.45;100497.06;12250012;19;19926;-87
2023/03/05 16:41:32;;;;;;;;;;;8.30;49.50;;;6.66;53.64;100479.38;12251523;19;19934;-87
2023/03/05 16:45:33;;;;;;;;;;;8.30;49.50;;;6.70;53.44;100487.84;12253049;19;19915;-87
2023/03/05 16:49:35;;;;;;;;;;;8.30;49.60;;;6.74;53.46;100502.41;12252691;19;19915;-87
2023/03/05 16:53:38;;;;;;;;;;;8.20;49.60;;;6.63;53.69;100480.34;12252287;19;19923;-90
2023/03/05 16:57:39;;;;;;;;;;;8.20;49.60;;;6.72;53.65;100496.41;12251270;19;19926;-87
2023/03/05 17:01:41;;;;;;;;;;;8.20;49.70;;;6.70;53.54;100511.19;12252768;19;19918;-87
2023/03/05 17:05:42;;;;;;;;;;;8.20;49.60;;;6.58;53.46;100489.22;12251794;19;19918;-87
2023/03/05 17:09:46;;;;;;;;;;;8.20;49.70;;;6.51;53.40;100485.19;12247768;19;19919;-87
2023/03/05 17:13:48;;;;;;;;;;;8.10;49.60;;;6.57;53.37;100495.34;12247125;19;20601;-87
2023/03/05 17:17:50;;;;;;;;;;;8.10;49.60;;;6.49;53.54;100482.69;12246639;19;20348;-87
2023/03/05 17:21:51;;;;;;;;;;;8.10;49.70;;;6.40;53.43;100475.31;12253119;19;19923;-87
2023/03/05 17:25:53;;;;;;;;;;;8.10;49.70;;;6.56;53.51;100504.88;12251734;19;20278;-87
2023/03/05 17:29:54;;;;;;;;;;;8.00;49.70;;;6.36;53.46;100478.91;12252682;19;20330;-87
2023/03/05 17:33:56;;;;;;;;;;;8.00;49.70;;;6.41;53.50;100500.31;12246422;19;19957;-87
2023/03/05 17:37:57;;;;;;;;;;;8.00;49.70;;;6.49;53.63;100511.22;12250170;19;19923;-87
2023/03/05 17:41:59;;;;;;;;;;;8.00;49.70;;;6.17;53.63;100458.94;12251241;19;19926;-87
2023/03/05 17:46:00;;;;;;;;;;;8.00;49.70;;;6.10;53.50;100441.97;12251449;19;19915;-87
2023/03/05 17:50:02;;;;;;;;;;;7.90;49.60;;;6.35;53.47;100500.59;12251229;19;20289;-87
2023/03/05 17:54:04;;;;;;;;;;;7.90;49.60;;;6.03;53.25;100442.28;12249146;19;19989;-87
2023/03/05 17:58:06;;;;;;;;;;;7.90;49.70;;;6.33;53.34;100512.75;12248878;19;19922;-87
2023/03/05 18:02:08;;;;;;;;;;;7.80;49.70;;;6.15;53.38;100468.50;12246384;19;20020;-87
2023/03/05 18:06:10;;;;;;;;;;;7.80;49.70;;;6.29;53.55;100499.09;12251062;19;19914;-87
2023/03/05 18:10:13;;;;;;;;;;;7.80;49.70;;;6.20;53.26;100484.72;12250682;19;19936;-87
2023/03/05 18:14:14;;;;;;;;;;;7.70;49.60;;;6.20;53.31;100491.66;12245593;19;19922;-88
2023/03/05 18:18:17;;;;;;;;;;;7.70;49.70;;;6.10;53.35;100470.47;12246691;19;19925;-87
2023/03/05 18:22:18;;;;;;;;;;;7.70;49.70;;;6.03;53.58;100456.06;12245285;19;20365;-86
2023/03/05 18:26:20;;;;;;;;;;;7.70;49.70;;;6.17;53.51;100473.66;12253409;19;19914;-86
2023/03/05 18:30:21;;;;;;;;;;;7.70;49.70;;;6.09;53.50;100468.78;12261042;19;19926;-86
2023/03/05 18:34:24;;;;;;;;;;;7.70;49.70;;;6.15;53.49;100480.63;12258731;19;19911;-86
2023/03/05 18:38:28;;;;;;;;;;;7.90;49.80;;;5.98;53.30;100461.44;12258669;19;19949;-87
2023/03/05 18:42:30;;;;;;;;;;;7.70;49.80;;;5.88;53.45;100438.50;12260463;19;19927;-86